createdAt,value
2023-03-03T00:01:07.057Z,44.99
2023-03-03T00:03:36.712Z,44.94
2023-03-03T00:06:05.431Z,44.99
2023-03-03T00:08:33.841Z,45.15
2023-03-03T00:11:03.361Z,44.92
2023-03-03T00:13:32.477Z,45.30
2023-03-03T00:16:15.950Z,45.46
2023-03-03T00:18:47.547Z,45.07
2023-03-03T00:21:29.349Z,45.58
2023-03-03T00:24:18.250Z,45.53
2023-03-03T00:26:47.591Z,45.30
2023-03-03T00:29:30.896Z,45.44
2023-03-03T00:32:17.247Z,45.28
2023-03-03T00:34:46.643Z,45.36
2023-03-03T00:37:27.125Z,45.52
2023-03-03T00:39:55.438Z,45.76
2023-03-03T00:42:24.540Z,45.66
2023-03-03T00:44:57.905Z,45.56
2023-03-03T00:47:33.429Z,45.58
2023-03-03T00:50:25.726Z,45.90
2023-03-03T00:53:02.492Z,45.58
2023-03-03T00:55:30.566Z,45.92
2023-03-03T00:57:58.548Z,45.72
2023-03-03T01:00:26.479Z,45.76
2023-03-03T01:02:54.501Z,45.75
2023-03-03T01:05:23.906Z,45.69
2023-03-03T01:07:51.796Z,45.72
2023-03-03T01:10:19.971Z,46.01
2023-03-03T01:12:48.037Z,45.80
2023-03-03T01:15:16.754Z,46.24
2023-03-03T01:17:44.813Z,45.97
2023-03-03T01:20:15.245Z,46.01
2023-03-03T01:22:44.735Z,45.96
2023-03-03T01:25:12.791Z,46.27
2023-03-03T01:27:41.192Z,46.65
2023-03-03T01:30:10.732Z,46.41
2023-03-03T01:32:38.762Z,46.63
2023-03-03T01:35:08.010Z,46.30
2023-03-03T01:37:36.186Z,46.40
2023-03-03T01:40:07.277Z,46.58
2023-03-03T01:42:35.297Z,46.39
2023-03-03T01:45:25.335Z,46.38
2023-03-03T01:47:58.359Z,46.06
2023-03-03T01:50:37.270Z,46.17
2023-03-03T01:53:07.760Z,46.41
2023-03-03T01:55:40.561Z,46.13
2023-03-03T01:58:12.304Z,46.39
2023-03-03T02:00:46.041Z,45.88
2023-03-03T02:03:14.126Z,46.36
2023-03-03T02:05:44.291Z,46.29
2023-03-03T02:08:17.958Z,46.20
2023-03-03T02:10:48.117Z,46.50
2023-03-03T02:13:16.434Z,46.21
2023-03-03T02:15:44.558Z,46.43
2023-03-03T02:18:15.497Z,46.67
2023-03-03T02:20:54.786Z,46.53
2023-03-03T02:23:28.368Z,46.41
2023-03-03T02:26:08.438Z,46.48
2023-03-03T02:28:38.413Z,46.45
2023-03-03T02:31:11.026Z,46.51
2023-03-03T02:33:39.111Z,46.84
2023-03-03T02:36:07.781Z,46.58
2023-03-03T02:38:42.274Z,46.64
2023-03-03T02:41:17.388Z,46.67
2023-03-03T02:43:53.725Z,46.71
2023-03-03T02:46:21.978Z,46.67
2023-03-03T02:48:49.996Z,46.55
2023-03-03T02:51:17.936Z,47.18
2023-03-03T02:53:46.841Z,46.69
2023-03-03T02:56:16.516Z,46.79
2023-03-03T02:58:44.411Z,47.25
2023-03-03T03:01:12.786Z,46.91
2023-03-03T03:03:40.792Z,46.74
2023-03-03T03:06:09.343Z,46.53
2023-03-03T03:08:37.468Z,46.65
2023-03-03T03:11:07.058Z,46.92
2023-03-03T03:13:36.555Z,47.02
2023-03-03T03:16:04.754Z,47.01
2023-03-03T03:18:32.695Z,47.31
2023-03-03T03:21:08.010Z,47.06
2023-03-03T03:23:37.131Z,46.87
2023-03-03T03:26:06.112Z,46.77
2023-03-03T03:28:34.257Z,46.84
2023-03-03T03:31:03.834Z,46.92
2023-03-03T03:33:31.948Z,47.37
2023-03-03T03:36:00.119Z,47.01
2023-03-03T03:38:29.777Z,47.13
2023-03-03T03:40:58.082Z,46.90
2023-03-03T03:43:26.941Z,47.49
2023-03-03T03:45:54.953Z,47.09
2023-03-03T03:48:24.480Z,47.05
2023-03-03T03:50:52.688Z,47.18
2023-03-03T03:53:20.962Z,46.90
2023-03-03T03:55:48.973Z,47.37
2023-03-03T03:58:18.428Z,47.17
2023-03-03T04:00:47.370Z,47.45
2023-03-03T04:03:15.868Z,46.88
2023-03-03T04:05:45.686Z,47.24
2023-03-03T04:08:14.030Z,47.65
2023-03-03T04:10:41.894Z,47.18
2023-03-03T04:13:09.745Z,47.21
2023-03-03T04:15:37.751Z,46.97
2023-03-03T04:18:06.128Z,47.48
2023-03-03T04:20:34.183Z,47.16
2023-03-03T04:23:03.658Z,46.94
2023-03-03T04:25:31.665Z,47.47
2023-03-03T04:27:59.734Z,47.32
2023-03-03T04:30:28.108Z,47.12
2023-03-03T04:32:56.007Z,47.51
2023-03-03T04:35:24.105Z,47.24
2023-03-03T04:37:52.030Z,47.49
2023-03-03T04:40:21.382Z,47.14
2023-03-03T04:42:49.518Z,47.53
2023-03-03T04:45:17.685Z,47.26
2023-03-03T04:47:45.648Z,47.42
2023-03-03T04:50:13.770Z,47.43
2023-03-03T04:52:41.701Z,47.29
2023-03-03T04:55:10.955Z,47.59
2023-03-03T04:57:40.250Z,47.30
2023-03-03T05:00:13.066Z,47.43
2023-03-03T05:02:41.537Z,47.64
2023-03-03T05:05:11.341Z,47.36
2023-03-03T05:07:39.326Z,47.43
2023-03-03T05:10:08.843Z,47.74
2023-03-03T05:12:36.700Z,47.58
2023-03-03T05:15:07.617Z,46.95
2023-03-03T05:17:35.570Z,47.37
2023-03-03T05:20:03.506Z,47.54
2023-03-03T05:22:31.440Z,47.30
2023-03-03T05:24:59.326Z,47.36
2023-03-03T05:27:27.277Z,47.58
2023-03-03T05:29:55.228Z,47.43
2023-03-03T05:32:24.570Z,47.27
2023-03-03T05:34:52.674Z,47.47
2023-03-03T05:37:20.806Z,47.78
2023-03-03T05:39:48.707Z,47.71
2023-03-03T05:42:16.598Z,47.34
2023-03-03T05:44:44.465Z,47.60
2023-03-03T05:47:12.653Z,47.41
2023-03-03T05:49:42.147Z,47.66
2023-03-03T05:52:10.216Z,47.81
2023-03-03T05:54:38.169Z,47.58
2023-03-03T05:57:06.121Z,47.34
2023-03-03T05:59:34.077Z,47.34
2023-03-03T06:02:02.272Z,47.50
2023-03-03T06:04:30.217Z,47.70
2023-03-03T06:06:59.650Z,47.59
2023-03-03T06:09:28.068Z,47.74
2023-03-03T06:11:55.890Z,47.49
2023-03-03T06:14:26.908Z,47.42
2023-03-03T06:16:55.077Z,47.56
2023-03-03T06:19:23.051Z,47.46
2023-03-03T06:21:51.080Z,47.75
2023-03-03T06:24:20.362Z,47.37
2023-03-03T06:26:48.411Z,47.51
2023-03-03T06:29:16.784Z,47.81
2023-03-03T06:31:45.166Z,47.57
2023-03-03T06:34:13.112Z,47.83
2023-03-03T06:36:41.907Z,47.82
2023-03-03T06:39:09.806Z,47.89
2023-03-03T06:41:39.750Z,47.53
2023-03-03T06:44:07.701Z,47.49
2023-03-03T06:46:35.715Z,47.48
2023-03-03T06:49:03.670Z,47.90
2023-03-03T06:51:35.009Z,47.91
2023-03-03T06:54:10.847Z,48.01
2023-03-03T06:56:40.693Z,48.08
2023-03-03T06:59:13.925Z,47.82
2023-03-03T07:01:42.260Z,47.93
2023-03-03T07:04:22.897Z,48.21
2023-03-03T07:06:51.032Z,48.29
2023-03-03T07:09:24.092Z,48.01
2023-03-03T07:11:54.188Z,47.97
2023-03-03T07:14:22.316Z,48.17
2023-03-03T07:16:54.982Z,47.96
2023-03-03T07:19:33.067Z,48.13
2023-03-03T07:22:05.794Z,48.06
2023-03-03T07:24:34.579Z,47.96
2023-03-03T07:27:13.756Z,47.98
2023-03-03T07:29:42.337Z,48.16
2023-03-03T07:32:26.143Z,48.46
2023-03-03T07:34:56.190Z,48.57
2023-03-03T07:37:31.790Z,48.31
2023-03-03T07:40:01.924Z,48.37
2023-03-03T07:42:39.952Z,48.36
2023-03-03T07:45:25.135Z,48.22
2023-03-03T07:47:53.345Z,48.19
2023-03-03T07:50:25.493Z,48.03
2023-03-03T07:52:57.535Z,48.16
2023-03-03T07:55:34.102Z,48.38
2023-03-03T07:58:22.199Z,47.97
2023-03-03T08:01:29.324Z,48.56
2023-03-03T08:03:57.671Z,48.17
2023-03-03T08:06:41.438Z,48.32
2023-03-03T08:09:32.704Z,48.47
2023-03-03T08:12:10.326Z,48.18
2023-03-03T08:14:40.186Z,48.61
2023-03-03T08:17:16.081Z,48.55
2023-03-03T08:19:43.962Z,48.49
2023-03-03T08:22:17.408Z,48.59
2023-03-03T08:24:45.371Z,48.49
2023-03-03T08:27:13.258Z,48.38
2023-03-03T08:29:42.801Z,48.48
2023-03-03T08:32:10.800Z,47.96
2023-03-03T08:34:38.782Z,48.40
2023-03-03T08:37:06.852Z,48.25
2023-03-03T08:39:34.829Z,48.05
2023-03-03T08:42:02.877Z,48.53
2023-03-03T08:44:30.767Z,47.89
2023-03-03T08:47:00.454Z,48.36
2023-03-03T08:49:28.432Z,48.50
2023-03-03T08:51:57.192Z,48.44
2023-03-03T08:54:25.034Z,48.13
2023-03-03T08:56:52.943Z,48.42
2023-03-03T08:59:22.581Z,48.41
2023-03-03T09:01:50.619Z,48.68
2023-03-03T09:04:20.060Z,48.74
2023-03-03T09:06:48.466Z,48.60
2023-03-03T09:09:16.492Z,48.58
2023-03-03T09:11:44.741Z,48.60
2023-03-03T09:14:15.768Z,48.66
2023-03-03T09:16:50.997Z,48.52
2023-03-03T09:19:25.483Z,48.60
2023-03-03T09:21:54.958Z,48.45
2023-03-03T09:24:28.000Z,48.44
2023-03-03T09:26:56.037Z,48.58
2023-03-03T09:29:29.349Z,48.30
2023-03-03T09:32:01.062Z,47.98
2023-03-03T09:34:41.090Z,48.22
2023-03-03T09:37:23.864Z,47.97
2023-03-03T09:39:53.386Z,47.87
2023-03-03T09:42:57.022Z,47.87
2023-03-03T09:45:59.819Z,48.00
2023-03-03T09:48:40.196Z,48.07
2023-03-03T09:51:20.928Z,47.88
2023-03-03T09:54:02.018Z,48.17
2023-03-03T09:56:35.406Z,48.15
2023-03-03T09:59:17.816Z,48.06
2023-03-03T10:01:56.361Z,48.14
2023-03-03T10:05:00.562Z,47.67
2023-03-03T10:07:39.466Z,47.81
2023-03-03T10:10:30.849Z,47.72
2023-03-03T10:13:13.243Z,46.92
2023-03-03T10:15:54.787Z,46.90
2023-03-03T10:18:33.807Z,46.53
2023-03-03T10:21:09.847Z,46.35
2023-03-03T10:23:56.889Z,46.20
2023-03-03T10:26:52.545Z,45.83
2023-03-03T10:29:37.142Z,45.98
2023-03-03T10:32:32.150Z,45.33
2023-03-03T10:35:16.894Z,45.57
2023-03-03T10:37:55.269Z,45.21
2023-03-03T10:40:33.064Z,45.14
2023-03-03T10:43:43.799Z,44.83
2023-03-03T10:46:32.320Z,44.57
2023-03-03T10:49:21.150Z,44.62
2023-03-03T10:52:02.064Z,44.24
2023-03-03T10:54:46.125Z,43.74
2023-03-03T10:57:24.269Z,43.70
2023-03-03T11:00:05.517Z,43.56
2023-03-03T11:02:44.822Z,43.47
2023-03-03T11:05:38.299Z,43.44
2023-03-03T11:08:13.940Z,43.30
2023-03-03T11:10:52.378Z,42.89
2023-03-03T11:13:29.281Z,42.83
2023-03-03T11:16:19.504Z,43.05
2023-03-03T11:19:02.941Z,42.60
2023-03-03T11:21:36.234Z,42.54
2023-03-03T11:24:17.464Z,42.14
2023-03-03T11:27:07.832Z,41.99
2023-03-03T11:29:51.528Z,42.02
2023-03-03T11:32:28.600Z,42.00
2023-03-03T11:35:05.562Z,41.76
2023-03-03T11:37:42.001Z,41.91
2023-03-03T11:40:18.455Z,41.29
2023-03-03T11:42:57.598Z,41.19
2023-03-03T11:45:32.534Z,41.26
2023-03-03T11:48:06.379Z,41.12
2023-03-03T11:50:40.445Z,40.98
2023-03-03T11:53:28.168Z,40.70
2023-03-03T11:56:00.003Z,41.03
2023-03-03T11:58:33.244Z,40.64
2023-03-03T12:01:09.843Z,40.61
2023-03-03T12:03:42.759Z,40.33
2023-03-03T12:06:22.686Z,40.41
2023-03-03T12:09:11.854Z,40.22
2023-03-03T12:11:49.433Z,40.25
2023-03-03T12:14:33.232Z,40.39
2023-03-03T12:17:07.298Z,40.46
2023-03-03T12:19:40.298Z,40.62
2023-03-03T12:22:24.443Z,41.03
2023-03-03T12:25:06.044Z,40.47
2023-03-03T12:27:44.925Z,40.49
2023-03-03T12:30:22.168Z,40.43
2023-03-03T12:33:05.948Z,40.58
2023-03-03T12:35:40.532Z,40.69
2023-03-03T12:38:17.652Z,40.53
2023-03-03T12:40:53.718Z,40.77
2023-03-03T12:43:37.545Z,40.37
2023-03-03T12:46:13.224Z,40.34
2023-03-03T12:48:45.020Z,40.41
2023-03-03T12:51:26.068Z,40.46
2023-03-03T12:54:19.969Z,40.35
2023-03-03T12:56:55.073Z,40.04
2023-03-03T12:59:30.422Z,39.58
2023-03-03T13:02:16.899Z,39.54
2023-03-03T13:04:54.801Z,39.64
2023-03-03T13:07:28.625Z,39.03
2023-03-03T13:10:15.566Z,39.26
2023-03-03T13:12:51.773Z,38.64
2023-03-03T13:15:31.966Z,38.86
2023-03-03T13:18:20.816Z,39.21
2023-03-03T13:20:55.049Z,38.73
2023-03-03T13:23:38.257Z,38.99
2023-03-03T13:26:12.879Z,39.01
2023-03-03T13:28:50.476Z,38.86
2023-03-03T13:31:22.379Z,38.82
2023-03-03T13:33:55.524Z,38.94
2023-03-03T13:36:27.829Z,38.96
2023-03-03T13:39:01.538Z,38.93
2023-03-03T13:41:34.984Z,38.77
2023-03-03T13:44:07.176Z,38.77
2023-03-03T13:46:43.601Z,38.59
2023-03-03T13:49:37.467Z,38.81
2023-03-03T13:52:09.912Z,38.44
2023-03-03T13:54:59.174Z,38.45
2023-03-03T13:57:52.393Z,38.21
2023-03-03T14:00:32.028Z,38.61
2023-03-03T14:03:33.262Z,38.51
2023-03-03T14:06:04.532Z,38.86
2023-03-03T14:08:59.170Z,38.69
2023-03-03T14:11:31.336Z,38.59
2023-03-03T14:14:09.475Z,38.67
2023-03-03T14:16:48.477Z,38.91
2023-03-03T14:19:20.353Z,38.87
2023-03-03T14:22:00.505Z,38.90
2023-03-03T14:24:30.152Z,38.82
2023-03-03T14:26:59.808Z,38.70
2023-03-03T14:29:35.312Z,38.75
2023-03-03T14:32:21.385Z,38.82
2023-03-03T14:34:59.709Z,38.58
2023-03-03T14:37:29.988Z,38.81
2023-03-03T14:40:17.388Z,38.39
2023-03-03T14:42:50.015Z,38.71
2023-03-03T14:45:35.961Z,38.26
2023-03-03T14:48:17.239Z,38.53
2023-03-03T14:50:50.924Z,38.12
2023-03-03T14:53:32.091Z,38.39
2023-03-03T14:56:18.381Z,38.31
2023-03-03T14:58:46.446Z,38.34
2023-03-03T15:01:23.933Z,38.51
2023-03-03T15:04:00.447Z,38.61
2023-03-03T15:06:37.786Z,38.61
2023-03-03T15:09:41.982Z,38.95
2023-03-03T15:12:24.475Z,39.08
2023-03-03T15:14:54.225Z,39.29
2023-03-03T15:17:34.815Z,39.17
2023-03-03T15:20:14.894Z,39.62
2023-03-03T15:22:49.724Z,39.61
2023-03-03T15:25:41.926Z,39.50
2023-03-03T15:28:28.121Z,39.33
2023-03-03T15:31:04.558Z,39.26
2023-03-03T15:33:39.118Z,39.32
2023-03-03T15:36:16.866Z,39.40
2023-03-03T15:38:57.296Z,39.42
2023-03-03T15:41:35.947Z,39.15
2023-03-03T15:44:16.039Z,39.44
2023-03-03T15:47:12.408Z,39.14
2023-03-03T15:49:59.659Z,39.19
2023-03-03T15:52:46.560Z,39.09
2023-03-03T15:55:27.519Z,39.16
2023-03-03T15:58:05.800Z,39.08
2023-03-03T16:00:49.478Z,39.37
2023-03-03T16:03:22.996Z,39.21
2023-03-03T16:05:55.372Z,39.24
2023-03-03T16:08:31.035Z,39.64
2023-03-03T16:11:08.289Z,39.27
2023-03-03T16:14:20.043Z,39.58
2023-03-03T16:16:55.685Z,39.56
2023-03-03T16:19:41.193Z,39.54
2023-03-03T16:22:37.442Z,39.55
2023-03-03T16:25:21.857Z,39.42
2023-03-03T16:27:57.213Z,39.21
2023-03-03T16:30:30.721Z,39.12
2023-03-03T16:33:20.323Z,38.91
2023-03-03T16:35:57.443Z,39.19
2023-03-03T16:38:33.571Z,39.36
2023-03-03T16:41:02.684Z,39.06
2023-03-03T16:43:43.283Z,39.16
2023-03-03T16:46:23.354Z,39.42
2023-03-03T16:49:01.309Z,39.46
2023-03-03T16:51:40.680Z,39.50
2023-03-03T16:54:12.807Z,39.50
2023-03-03T16:56:45.734Z,39.54
2023-03-03T16:59:35.113Z,39.77
2023-03-03T17:02:18.741Z,40.01
2023-03-03T17:04:57.809Z,40.10
2023-03-03T17:07:43.518Z,39.82
2023-03-03T17:10:26.485Z,39.77
2023-03-03T17:13:15.789Z,40.18
2023-03-03T17:15:54.025Z,39.76
2023-03-03T17:18:37.743Z,39.71
2023-03-03T17:21:15.859Z,39.63
2023-03-03T17:23:57.120Z,39.85
2023-03-03T17:26:36.796Z,39.97
2023-03-03T17:29:19.182Z,39.90
2023-03-03T17:31:55.110Z,39.64
2023-03-03T17:34:31.977Z,39.89
2023-03-03T17:37:15.659Z,40.01
2023-03-03T17:40:01.765Z,40.00
2023-03-03T17:42:38.384Z,40.21
2023-03-03T17:45:10.474Z,40.10
2023-03-03T17:47:51.893Z,40.53
2023-03-03T17:50:47.883Z,40.24
2023-03-03T17:53:34.677Z,40.35
2023-03-03T17:56:17.706Z,40.41
2023-03-03T17:59:09.141Z,40.19
2023-03-03T18:01:53.312Z,40.59
2023-03-03T18:04:36.973Z,40.36
2023-03-03T18:07:35.181Z,40.52
2023-03-03T18:10:27.831Z,40.51
2023-03-03T18:13:05.716Z,40.33
2023-03-03T18:16:10.717Z,40.44
2023-03-03T18:19:15.250Z,40.40
2023-03-03T18:21:52.658Z,40.45
2023-03-03T18:24:31.979Z,40.77
2023-03-03T18:27:28.873Z,40.80
2023-03-03T18:30:24.873Z,40.76
2023-03-03T18:33:09.417Z,40.77
2023-03-03T18:35:39.581Z,40.97
2023-03-03T18:38:37.652Z,40.77
2023-03-03T18:41:06.865Z,40.93
2023-03-03T18:44:23.985Z,40.84
2023-03-03T18:46:54.664Z,40.68
2023-03-03T18:50:00.713Z,40.99
2023-03-03T18:52:30.893Z,41.17
2023-03-03T18:55:27.149Z,40.82
2023-03-03T18:58:34.017Z,40.91
2023-03-03T19:01:14.318Z,41.13
2023-03-03T19:04:02.151Z,40.87
2023-03-03T19:06:32.590Z,40.81
2023-03-03T19:09:00.872Z,40.95
2023-03-03T19:11:37.756Z,40.81
2023-03-03T19:14:32.576Z,40.97
2023-03-03T19:17:39.887Z,40.82
2023-03-03T19:20:15.504Z,40.98
2023-03-03T19:22:48.036Z,40.87
2023-03-03T19:25:21.887Z,40.69
2023-03-03T19:28:04.842Z,40.85
2023-03-03T19:30:46.255Z,40.93
2023-03-03T19:33:41.904Z,40.93
2023-03-03T19:36:26.869Z,40.82
2023-03-03T19:39:09.910Z,40.77
2023-03-03T19:41:50.028Z,40.57
2023-03-03T19:44:35.805Z,40.73
2023-03-03T19:47:06.084Z,40.92
2023-03-03T19:49:54.764Z,40.56
2023-03-03T19:52:31.419Z,40.63
2023-03-03T19:55:15.268Z,40.76
2023-03-03T19:57:54.235Z,41.00
2023-03-03T20:00:32.195Z,40.71
2023-03-03T20:03:38.313Z,40.88
2023-03-03T20:06:21.725Z,41.07
2023-03-03T20:08:55.035Z,40.82
2023-03-03T20:11:46.345Z,40.88
2023-03-03T20:14:26.160Z,40.82
2023-03-03T20:16:58.344Z,40.98
2023-03-03T20:19:44.071Z,40.64
2023-03-03T20:22:24.797Z,40.84
2023-03-03T20:25:09.443Z,41.03
2023-03-03T20:27:46.888Z,40.63
2023-03-03T20:30:28.803Z,40.85
2023-03-03T20:33:12.297Z,40.76
2023-03-03T20:35:51.555Z,40.82
2023-03-03T20:38:28.804Z,40.78
2023-03-03T20:41:07.044Z,40.73
2023-03-03T20:43:48.169Z,41.11
2023-03-03T20:46:23.562Z,40.81
2023-03-03T20:49:12.240Z,41.04
2023-03-03T20:51:46.261Z,40.89
2023-03-03T20:54:25.185Z,40.64
2023-03-03T20:56:58.250Z,40.73
2023-03-03T20:59:32.135Z,40.74
2023-03-03T21:02:11.589Z,40.81
2023-03-03T21:04:39.711Z,40.80
2023-03-03T21:07:07.959Z,40.84
2023-03-03T21:09:39.782Z,40.84
2023-03-03T21:12:13.086Z,40.80
2023-03-03T21:14:41.251Z,40.54
2023-03-03T21:17:26.902Z,40.57
2023-03-03T21:19:55.056Z,41.07
2023-03-03T21:22:23.884Z,40.85
2023-03-03T21:24:56.824Z,40.67
2023-03-03T21:27:27.224Z,40.77
2023-03-03T21:30:12.786Z,40.69
2023-03-03T21:32:42.974Z,41.11
2023-03-03T21:35:13.281Z,41.10
2023-03-03T21:37:47.651Z,40.77
2023-03-03T21:40:20.916Z,40.96
2023-03-03T21:42:49.331Z,41.04
2023-03-03T21:45:20.425Z,40.87
2023-03-03T21:47:49.050Z,41.13
2023-03-03T21:50:20.262Z,40.83
2023-03-03T21:52:48.267Z,41.14
2023-03-03T21:55:17.668Z,41.16
2023-03-03T21:57:45.732Z,41.17
2023-03-03T22:00:14.477Z,41.09
2023-03-03T22:02:42.380Z,41.09
2023-03-03T22:05:10.476Z,40.94
2023-03-03T22:07:38.418Z,41.06
2023-03-03T22:10:07.741Z,41.32
2023-03-03T22:12:37.194Z,41.09
2023-03-03T22:15:05.664Z,41.15
2023-03-03T22:17:33.717Z,41.31
2023-03-03T22:20:01.845Z,41.44
2023-03-03T22:22:29.916Z,41.37
2023-03-03T22:24:57.882Z,41.15
2023-03-03T22:27:25.966Z,41.11
2023-03-03T22:29:55.518Z,41.23
2023-03-03T22:32:23.498Z,41.15
2023-03-03T22:34:51.476Z,41.33
2023-03-03T22:37:19.465Z,41.57
2023-03-03T22:39:47.408Z,41.48
2023-03-03T22:42:15.353Z,41.15
2023-03-03T22:44:45.808Z,41.34
2023-03-03T22:47:15.360Z,41.00
2023-03-03T22:49:43.311Z,41.37
2023-03-03T22:52:11.186Z,41.36
2023-03-03T22:54:39.085Z,41.23
2023-03-03T22:57:07.148Z,41.56
2023-03-03T22:59:35.100Z,41.34
2023-03-03T23:02:03.050Z,41.66
2023-03-03T23:04:33.786Z,41.46
2023-03-03T23:07:05.990Z,41.61
2023-03-03T23:09:34.327Z,41.54
2023-03-03T23:12:02.309Z,41.58
2023-03-03T23:14:30.357Z,41.80
2023-03-03T23:16:58.247Z,41.66
2023-03-03T23:19:26.662Z,41.61
2023-03-03T23:21:56.028Z,41.70
2023-03-03T23:24:23.872Z,41.47
2023-03-03T23:26:56.822Z,41.52
2023-03-03T23:29:25.215Z,41.49
2023-03-03T23:31:53.183Z,41.51
2023-03-03T23:34:21.187Z,41.46
2023-03-03T23:36:49.543Z,41.49
2023-03-03T23:39:18.951Z,41.39
2023-03-03T23:41:46.958Z,41.46
2023-03-03T23:44:15.389Z,41.56
2023-03-03T23:46:43.487Z,41.60
2023-03-03T23:49:11.509Z,41.61
2023-03-03T23:51:39.441Z,41.60
2023-03-03T23:54:07.508Z,41.43
2023-03-03T23:56:36.884Z,41.65
2023-03-03T23:59:04.930Z,41.58
